createdAt,value
2023-03-17T00:00:52.389Z,102
2023-03-17T00:01:59.276Z,97
2023-03-17T00:03:06.097Z,103
2023-03-17T00:04:18.138Z,97
2023-03-17T00:05:24.928Z,103
2023-03-17T00:06:34.452Z,99
2023-03-17T00:07:41.363Z,106
2023-03-17T00:08:48.258Z,107
2023-03-17T00:09:55.081Z,113
2023-03-17T00:11:02.745Z,102
2023-03-17T00:12:09.613Z,102
2023-03-17T00:13:16.554Z,105
2023-03-17T00:14:23.389Z,100
2023-03-17T00:15:30.294Z,96
2023-03-17T00:16:37.285Z,97
2023-03-17T00:17:44.165Z,95
2023-03-17T00:18:51.015Z,94
2023-03-17T00:19:57.891Z,97
2023-03-17T00:21:04.767Z,90
2023-03-17T00:22:16.843Z,96
2023-03-17T00:23:23.713Z,93
2023-03-17T00:24:30.592Z,98
2023-03-17T00:25:37.551Z,97
2023-03-17T00:26:44.409Z,100
2023-03-17T00:27:51.259Z,98
2023-03-17T00:28:58.080Z,101
2023-03-17T00:30:04.961Z,102
2023-03-17T00:31:12.199Z,99
2023-03-17T00:32:19.094Z,99
2023-03-17T00:33:25.992Z,101
2023-03-17T00:34:32.897Z,102
2023-03-17T00:35:39.778Z,89
2023-03-17T00:36:46.584Z,89
2023-03-17T00:37:53.465Z,93
2023-03-17T00:39:00.361Z,96
2023-03-17T00:40:07.236Z,95
2023-03-17T00:41:19.394Z,92
2023-03-17T00:42:26.347Z,91
2023-03-17T00:43:34.080Z,96
2023-03-17T00:44:40.941Z,97
2023-03-17T00:45:47.813Z,91
2023-03-17T00:46:54.634Z,91
2023-03-17T00:48:01.556Z,97
2023-03-17T00:49:08.490Z,96
2023-03-17T00:50:18.285Z,97
2023-03-17T00:51:25.124Z,98
2023-03-17T00:52:32.100Z,126
2023-03-17T00:53:38.924Z,124
2023-03-17T00:54:45.730Z,141
2023-03-17T00:55:52.960Z,129
2023-03-17T00:56:59.815Z,113
2023-03-17T00:58:06.784Z,120
2023-03-17T00:59:19.283Z,95
2023-03-17T01:00:29.892Z,108
2023-03-17T01:01:36.287Z,98
2023-03-17T01:02:43.164Z,107
2023-03-17T01:03:50.004Z,122
2023-03-17T01:05:05.645Z,126
2023-03-17T01:06:04.145Z,141
2023-03-17T01:07:11.021Z,142
2023-03-17T01:08:18.026Z,148
2023-03-17T01:09:24.922Z,133
2023-03-17T01:10:32.143Z,136
2023-03-17T01:11:38.595Z,130
2023-03-17T01:12:45.452Z,128
2023-03-17T01:13:52.293Z,125
2023-03-17T01:15:00.220Z,118
2023-03-17T01:16:07.238Z,115
2023-03-17T01:17:14.085Z,128
2023-03-17T01:18:20.917Z,128
2023-03-17T01:19:27.840Z,127
2023-03-17T01:20:34.833Z,129
2023-03-17T01:21:41.935Z,126
2023-03-17T01:22:48.797Z,125
2023-03-17T01:23:55.644Z,122
2023-03-17T01:25:03.456Z,130
2023-03-17T01:26:10.558Z,128
2023-03-17T01:27:18.417Z,124
2023-03-17T01:28:25.279Z,128
2023-03-17T01:29:32.269Z,125
2023-03-17T01:30:39.113Z,126
2023-03-17T01:31:46.048Z,124
2023-03-17T01:32:53.074Z,124
2023-03-17T01:33:59.879Z,121
2023-03-17T01:35:06.700Z,114
2023-03-17T01:36:13.571Z,111
2023-03-17T01:37:20.466Z,107
2023-03-17T01:38:27.397Z,106
2023-03-17T01:39:34.317Z,103
2023-03-17T01:40:41.190Z,113
2023-03-17T01:41:48.061Z,105
2023-03-17T01:42:54.996Z,98
2023-03-17T01:44:09.690Z,101
2023-03-17T01:45:19.100Z,105
2023-03-17T01:46:36.237Z,99
2023-03-17T01:47:43.129Z,94
2023-03-17T01:48:50.210Z,97
2023-03-17T01:49:59.879Z,100
2023-03-17T01:51:09.640Z,94
2023-03-17T01:52:16.526Z,93
2023-03-17T01:53:23.345Z,95
2023-03-17T01:54:30.232Z,97
2023-03-17T01:55:44.913Z,99
2023-03-17T01:56:51.804Z,95
2023-03-17T01:57:58.620Z,95
2023-03-17T01:59:05.556Z,101
2023-03-17T02:00:13.461Z,97
2023-03-17T02:01:20.559Z,96
2023-03-17T02:02:27.444Z,96
2023-03-17T02:03:34.360Z,100
2023-03-17T02:04:42.186Z,100
2023-03-17T02:05:49.032Z,102
2023-03-17T02:06:58.180Z,100
2023-03-17T02:08:02.981Z,95
2023-03-17T02:09:15.924Z,96
2023-03-17T02:10:22.746Z,96
2023-03-17T02:11:29.623Z,96
2023-03-17T02:12:36.532Z,95
2023-03-17T02:13:43.462Z,104
2023-03-17T02:14:50.418Z,107
2023-03-17T02:15:58.140Z,106
2023-03-17T02:17:05.004Z,110
2023-03-17T02:18:11.832Z,106
2023-03-17T02:19:18.693Z,113
2023-03-17T02:20:25.541Z,101
2023-03-17T02:21:32.654Z,98
2023-03-17T02:22:45.360Z,92
2023-03-17T02:23:52.262Z,84
2023-03-17T02:24:59.116Z,92
2023-03-17T02:26:06.178Z,80
2023-03-17T02:27:13.885Z,78
2023-03-17T02:28:25.932Z,77
2023-03-17T02:29:32.776Z,78
2023-03-17T02:30:39.595Z,75
2023-03-17T02:31:46.433Z,76
2023-03-17T02:32:53.387Z,82
2023-03-17T02:34:00.249Z,75
2023-03-17T02:35:07.091Z,78
2023-03-17T02:36:13.971Z,76
2023-03-17T02:37:20.826Z,74
2023-03-17T02:38:27.774Z,64
2023-03-17T02:39:34.583Z,68
2023-03-17T02:40:45.859Z,68
2023-03-17T02:41:52.711Z,70
2023-03-17T02:42:59.568Z,63
2023-03-17T02:44:06.464Z,67
2023-03-17T02:45:14.342Z,64
2023-03-17T02:46:21.309Z,62
2023-03-17T02:47:28.164Z,64
2023-03-17T02:48:35.023Z,59
2023-03-17T02:49:41.913Z,65
2023-03-17T02:50:48.737Z,60
2023-03-17T02:51:55.764Z,57
2023-03-17T02:53:02.700Z,60
2023-03-17T02:54:09.597Z,60
2023-03-17T02:55:16.480Z,58
2023-03-17T02:56:23.309Z,57
2023-03-17T02:57:30.208Z,55
2023-03-17T02:58:37.070Z,57
2023-03-17T02:59:43.958Z,57
2023-03-17T03:00:50.826Z,58
2023-03-17T03:01:57.714Z,58
2023-03-17T03:03:04.711Z,56
2023-03-17T03:04:11.834Z,61
2023-03-17T03:05:18.862Z,58
2023-03-17T03:06:25.947Z,56
2023-03-17T03:07:33.110Z,60
2023-03-17T03:08:40.097Z,57
2023-03-17T03:09:47.156Z,57
2023-03-17T03:10:54.346Z,59
2023-03-17T03:12:01.370Z,59
2023-03-17T03:13:08.617Z,60
2023-03-17T03:14:15.670Z,57
2023-03-17T03:15:22.719Z,58
2023-03-17T03:16:29.793Z,59
2023-03-17T03:17:36.898Z,60
2023-03-17T03:18:44.144Z,59
2023-03-17T03:19:51.158Z,57
2023-03-17T03:20:59.381Z,60
2023-03-17T03:22:06.575Z,62
2023-03-17T03:23:13.685Z,60
2023-03-17T03:24:20.748Z,58
2023-03-17T03:25:27.874Z,61
2023-03-17T03:26:34.942Z,61
2023-03-17T03:27:42.038Z,58
2023-03-17T03:28:49.335Z,64
2023-03-17T03:29:56.386Z,59
2023-03-17T03:31:03.440Z,59
2023-03-17T03:32:10.490Z,57
2023-03-17T03:33:17.530Z,59
2023-03-17T03:34:25.596Z,61
2023-03-17T03:35:32.693Z,66
2023-03-17T03:36:41.144Z,59
2023-03-17T03:37:48.440Z,59
2023-03-17T03:38:55.487Z,61
2023-03-17T03:40:02.533Z,61
2023-03-17T03:41:09.893Z,65
2023-03-17T03:42:16.961Z,64
2023-03-17T03:43:24.401Z,59
2023-03-17T03:44:31.289Z,60
2023-03-17T03:45:38.284Z,62
2023-03-17T03:46:45.155Z,64
2023-03-17T03:47:51.976Z,63
2023-03-17T03:48:58.792Z,61
2023-03-17T03:50:05.638Z,63
2023-03-17T03:51:12.846Z,67
2023-03-17T03:52:19.749Z,61
2023-03-17T03:53:27.530Z,62
2023-03-17T03:54:34.416Z,65
2023-03-17T03:55:41.363Z,64
2023-03-17T03:56:48.293Z,71
2023-03-17T03:57:55.121Z,68
2023-03-17T03:59:01.978Z,73
2023-03-17T04:00:08.757Z,73
2023-03-17T04:01:15.858Z,76
2023-03-17T04:02:22.949Z,76
2023-03-17T04:03:29.890Z,81
2023-03-17T04:04:37.312Z,85
2023-03-17T04:05:44.161Z,86
2023-03-17T04:06:51.061Z,85
2023-03-17T04:07:58.089Z,88
2023-03-17T04:09:05.136Z,98
2023-03-17T04:10:11.956Z,92
2023-03-17T04:11:18.768Z,105
2023-03-17T04:12:25.601Z,102
2023-03-17T04:13:32.763Z,102
2023-03-17T04:14:40.786Z,102
2023-03-17T04:15:47.697Z,103
2023-03-17T04:16:54.522Z,104
2023-03-17T04:18:01.443Z,97
2023-03-17T04:19:08.344Z,102
2023-03-17T04:20:15.174Z,99
2023-03-17T04:21:23.694Z,101
2023-03-17T04:22:30.744Z,100
2023-03-17T04:23:37.628Z,98
2023-03-17T04:24:50.676Z,97
2023-03-17T04:25:58.612Z,92
2023-03-17T04:27:06.172Z,100
2023-03-17T04:28:12.514Z,92
2023-03-17T04:29:19.340Z,93
2023-03-17T04:30:26.239Z,97
2023-03-17T04:31:33.088Z,90
2023-03-17T04:32:40.042Z,89
2023-03-17T04:33:46.874Z,88
2023-03-17T04:34:53.784Z,85
2023-03-17T04:36:00.957Z,83
2023-03-17T04:37:07.868Z,88
2023-03-17T04:38:14.789Z,91
2023-03-17T04:39:21.648Z,85
2023-03-17T04:40:31.022Z,87
2023-03-17T04:41:38.256Z,89
2023-03-17T04:42:45.790Z,86
2023-03-17T04:43:52.766Z,93
2023-03-17T04:44:59.667Z,91
2023-03-17T04:46:06.620Z,92
2023-03-17T04:47:13.436Z,90
2023-03-17T04:48:20.288Z,95
2023-03-17T04:49:27.165Z,89
2023-03-17T04:50:34.078Z,91
2023-03-17T04:51:40.863Z,94
2023-03-17T04:52:47.658Z,95
2023-03-17T04:53:55.761Z,91
2023-03-17T04:55:02.758Z,95
2023-03-17T04:56:09.876Z,91
2023-03-17T04:57:16.717Z,89
2023-03-17T04:58:30.674Z,99
2023-03-17T04:59:30.504Z,98
2023-03-17T05:00:37.340Z,96
2023-03-17T05:01:44.346Z,94
2023-03-17T05:02:51.428Z,97
2023-03-17T05:03:58.444Z,97
2023-03-17T05:05:05.273Z,98
2023-03-17T05:06:12.257Z,98
2023-03-17T05:07:19.277Z,103
2023-03-17T05:08:26.092Z,106
2023-03-17T05:09:32.901Z,102
2023-03-17T05:10:39.785Z,106
2023-03-17T05:11:46.628Z,109
2023-03-17T05:12:53.533Z,115
2023-03-17T05:14:01.387Z,116
2023-03-17T05:15:08.209Z,115
2023-03-17T05:16:15.098Z,118
2023-03-17T05:17:22.005Z,113
2023-03-17T05:18:30.475Z,116
2023-03-17T05:19:37.349Z,117
2023-03-17T05:20:47.233Z,121
2023-03-17T05:21:55.476Z,118
2023-03-17T05:23:02.528Z,119
2023-03-17T05:24:09.365Z,125
2023-03-17T05:25:16.163Z,122
2023-03-17T05:26:27.235Z,124
2023-03-17T05:27:34.011Z,121
2023-03-17T05:28:40.872Z,121
2023-03-17T05:29:48.463Z,122
2023-03-17T05:30:55.400Z,127
2023-03-17T05:32:02.184Z,121
2023-03-17T05:33:09.158Z,125
2023-03-17T05:34:16.091Z,120
2023-03-17T05:35:22.843Z,129
2023-03-17T05:36:29.735Z,126
2023-03-17T05:37:36.550Z,124
2023-03-17T05:38:43.376Z,128
2023-03-17T05:39:50.209Z,122
2023-03-17T05:40:57.029Z,124
2023-03-17T05:42:03.974Z,123
2023-03-17T05:43:10.857Z,122
2023-03-17T05:44:17.687Z,119
2023-03-17T05:45:24.469Z,119
2023-03-17T05:46:31.343Z,121
2023-03-17T05:47:38.340Z,120
2023-03-17T05:48:45.188Z,120
2023-03-17T05:49:52.062Z,123
2023-03-17T05:50:58.886Z,122
2023-03-17T05:52:05.671Z,124
2023-03-17T05:53:12.543Z,126
2023-03-17T05:54:19.449Z,117
2023-03-17T05:55:26.366Z,119
2023-03-17T05:56:33.307Z,121
2023-03-17T05:57:40.090Z,123
2023-03-17T05:58:46.915Z,120
2023-03-17T05:59:53.811Z,125
2023-03-17T06:01:00.628Z,122
2023-03-17T06:02:08.573Z,120
2023-03-17T06:03:15.430Z,119
2023-03-17T06:04:22.154Z,119
2023-03-17T06:05:30.020Z,117
2023-03-17T06:06:37.616Z,122
2023-03-17T06:07:53.268Z,118
2023-03-17T06:08:51.135Z,122
2023-03-17T06:09:57.872Z,121
2023-03-17T06:11:05.729Z,122
2023-03-17T06:12:12.562Z,120
2023-03-17T06:13:19.430Z,115
2023-03-17T06:14:27.920Z,113
2023-03-17T06:15:34.961Z,114
2023-03-17T06:16:41.577Z,114
2023-03-17T06:17:49.276Z,119
2023-03-17T06:18:56.167Z,114
2023-03-17T06:20:03.077Z,111
2023-03-17T06:21:10.220Z,114
2023-03-17T06:22:18.661Z,115
2023-03-17T06:23:25.632Z,110
2023-03-17T06:24:33.500Z,114
2023-03-17T06:25:40.216Z,109
2023-03-17T06:26:47.096Z,116
2023-03-17T06:27:53.929Z,113
2023-03-17T06:29:00.817Z,114
2023-03-17T06:30:07.715Z,111
2023-03-17T06:31:14.897Z,111
2023-03-17T06:32:21.595Z,108
2023-03-17T06:33:29.258Z,108
2023-03-17T06:34:36.056Z,114
2023-03-17T06:35:43.804Z,112
2023-03-17T06:36:51.319Z,102
2023-03-17T06:37:58.376Z,108
2023-03-17T06:39:05.218Z,108
2023-03-17T06:40:13.957Z,107
2023-03-17T06:41:20.856Z,106
2023-03-17T06:42:27.744Z,109
2023-03-17T06:43:34.548Z,108
2023-03-17T06:44:41.464Z,107
2023-03-17T06:45:48.538Z,107
2023-03-17T06:46:57.269Z,100
2023-03-17T06:48:04.072Z,104
2023-03-17T06:49:11.719Z,101
2023-03-17T06:50:18.732Z,106
2023-03-17T06:51:27.496Z,101
2023-03-17T06:52:34.514Z,97
2023-03-17T06:53:41.495Z,103
2023-03-17T06:54:48.399Z,99
2023-03-17T06:55:56.158Z,103
2023-03-17T06:57:03.065Z,93
2023-03-17T06:58:09.930Z,93
2023-03-17T06:59:16.944Z,100
2023-03-17T07:00:24.648Z,95
2023-03-17T07:01:32.410Z,91
2023-03-17T07:02:39.387Z,93
2023-03-17T07:03:46.311Z,98
2023-03-17T07:04:53.416Z,93
2023-03-17T07:06:00.319Z,88
2023-03-17T07:07:07.337Z,88
2023-03-17T07:08:14.335Z,91
2023-03-17T07:09:21.187Z,91
2023-03-17T07:10:30.418Z,86
2023-03-17T07:11:39.413Z,83
2023-03-17T07:12:46.187Z,92
2023-03-17T07:13:53.169Z,99
2023-03-17T07:15:00.201Z,87
2023-03-17T07:16:07.176Z,85
2023-03-17T07:17:13.946Z,94
2023-03-17T07:18:20.770Z,84
2023-03-17T07:19:28.439Z,80
2023-03-17T07:20:35.428Z,78
2023-03-17T07:21:42.308Z,89
2023-03-17T07:22:49.294Z,80
2023-03-17T07:23:57.119Z,79
2023-03-17T07:25:04.052Z,76
2023-03-17T07:26:11.364Z,75
2023-03-17T07:27:18.768Z,72
2023-03-17T07:28:25.163Z,63
2023-03-17T07:29:32.026Z,68
2023-03-17T07:30:38.938Z,72
2023-03-17T07:31:46.005Z,66
2023-03-17T07:32:52.863Z,72
2023-03-17T07:34:01.004Z,69
2023-03-17T07:35:08.928Z,66
2023-03-17T07:36:16.549Z,68
2023-03-17T07:37:37.242Z,67
2023-03-17T07:38:46.529Z,60
2023-03-17T07:39:53.456Z,69
2023-03-17T07:41:00.596Z,65
2023-03-17T07:42:09.632Z,56
2023-03-17T07:43:30.001Z,53
2023-03-17T07:44:40.243Z,52
2023-03-17T07:47:27.724Z,54
2023-03-17T07:50:04.356Z,61
2023-03-17T07:52:28.380Z,48
2023-03-17T07:53:37.632Z,49
2023-03-17T07:55:01.829Z,50
2023-03-17T07:56:16.989Z,46
2023-03-17T07:58:30.042Z,45
2023-03-17T07:59:41.869Z,42
2023-03-17T08:00:51.842Z,43
2023-03-17T08:02:24.993Z,45
2023-03-17T08:07:10.001Z,45
2023-03-17T08:11:03.873Z,42
2023-03-17T08:12:10.942Z,41
2023-03-17T08:14:35.915Z,42
2023-03-17T08:15:46.240Z,45
2023-03-17T08:16:53.379Z,45
2023-03-17T08:18:00.320Z,46
2023-03-17T08:19:07.347Z,40
2023-03-17T08:20:14.415Z,45
2023-03-17T08:21:21.387Z,38
2023-03-17T08:22:28.697Z,41
2023-03-17T08:23:36.942Z,39
2023-03-17T08:24:45.980Z,40
2023-03-17T08:25:56.502Z,38
2023-03-17T08:27:09.477Z,42
2023-03-17T08:28:17.461Z,42
2023-03-17T08:29:27.143Z,32
2023-03-17T08:30:36.378Z,34
2023-03-17T08:31:45.253Z,33
2023-03-17T08:32:49.783Z,32
2023-03-17T08:33:59.538Z,30
2023-03-17T08:35:06.529Z,32
2023-03-17T08:36:21.393Z,30
2023-03-17T08:37:29.575Z,28
2023-03-17T08:38:39.322Z,29
2023-03-17T08:39:46.560Z,32
2023-03-17T08:40:57.525Z,29
2023-03-17T08:42:04.405Z,27
2023-03-17T08:43:11.244Z,27
2023-03-17T08:44:18.140Z,27
2023-03-17T08:45:25.109Z,29
2023-03-17T08:46:32.285Z,24
2023-03-17T08:47:40.130Z,20
2023-03-17T08:48:47.785Z,18
2023-03-17T08:49:56.557Z,21
2023-03-17T08:51:03.414Z,19
2023-03-17T08:52:10.507Z,19
2023-03-17T08:53:18.373Z,24
2023-03-17T08:54:25.267Z,25
2023-03-17T08:55:32.189Z,22
2023-03-17T08:56:42.074Z,27
2023-03-17T08:57:50.654Z,29
2023-03-17T08:58:59.771Z,27
2023-03-17T09:00:07.334Z,27
2023-03-17T09:01:18.707Z,29
2023-03-17T09:02:25.664Z,30
2023-03-17T09:03:32.504Z,31
2023-03-17T09:04:40.586Z,32
2023-03-17T09:05:47.831Z,32
2023-03-17T09:07:03.123Z,34
2023-03-17T09:08:03.492Z,31
2023-03-17T09:09:10.690Z,35
2023-03-17T09:10:22.295Z,36
2023-03-17T09:11:30.334Z,39
2023-03-17T09:12:40.378Z,34
2023-03-17T09:13:49.245Z,31
2023-03-17T09:14:59.679Z,30
2023-03-17T09:16:09.488Z,30
2023-03-17T09:17:17.660Z,31
2023-03-17T09:18:24.951Z,31
2023-03-17T09:19:32.182Z,33
2023-03-17T09:20:40.490Z,32
2023-03-17T09:21:47.573Z,33
2023-03-17T09:22:54.710Z,30
2023-03-17T09:24:02.711Z,32
2023-03-17T09:25:09.345Z,32
2023-03-17T09:26:19.349Z,29
2023-03-17T09:27:29.272Z,25
2023-03-17T09:28:37.423Z,25
2023-03-17T09:29:44.356Z,27
2023-03-17T09:30:52.574Z,20
2023-03-17T09:32:09.687Z,16
2023-03-17T09:33:19.163Z,17
2023-03-17T09:34:26.144Z,16
2023-03-17T09:35:34.655Z,17
2023-03-17T09:36:43.128Z,19
2023-03-17T09:37:50.601Z,17
2023-03-17T09:39:00.165Z,18
2023-03-17T09:40:10.764Z,16
2023-03-17T09:41:22.617Z,18
2023-03-17T09:42:42.996Z,17
2023-03-17T09:43:56.211Z,17
2023-03-17T09:45:10.780Z,12
2023-03-17T09:46:28.043Z,13
2023-03-17T09:47:43.034Z,13
2023-03-17T09:48:54.721Z,12
2023-03-17T09:50:04.500Z,11
2023-03-17T09:51:14.346Z,12
2023-03-17T09:52:21.539Z,10
2023-03-17T09:53:31.248Z,9
2023-03-17T09:54:38.882Z,11
2023-03-17T09:55:47.937Z,14
2023-03-17T09:56:56.342Z,13
2023-03-17T09:58:03.385Z,13
2023-03-17T09:59:15.225Z,10
2023-03-17T10:00:28.748Z,11
2023-03-17T10:01:38.643Z,12
2023-03-17T10:02:45.843Z,11
2023-03-17T10:03:52.827Z,10
2023-03-17T10:05:00.291Z,13
2023-03-17T10:06:14.344Z,11
2023-03-17T10:07:33.149Z,11
2023-03-17T10:08:49.683Z,10
2023-03-17T10:10:01.943Z,9
2023-03-17T10:11:10.996Z,13
2023-03-17T10:12:23.467Z,10
2023-03-17T10:13:33.756Z,8
2023-03-17T10:14:53.800Z,10
2023-03-17T10:16:03.830Z,10
2023-03-17T10:17:12.728Z,9
2023-03-17T10:18:22.767Z,19
2023-03-17T10:19:29.590Z,19
2023-03-17T10:20:42.033Z,17
2023-03-17T10:21:56.978Z,11
2023-03-17T10:23:12.070Z,11
2023-03-17T10:24:19.734Z,12
2023-03-17T10:25:26.576Z,11
2023-03-17T10:26:33.467Z,12
2023-03-17T10:27:44.949Z,11
2023-03-17T10:28:52.928Z,11
2023-03-17T10:30:00.940Z,10
2023-03-17T10:31:11.849Z,10
2023-03-17T10:32:19.705Z,11
2023-03-17T10:33:27.391Z,11
2023-03-17T10:34:37.353Z,9
2023-03-17T10:36:48.051Z,10
2023-03-17T10:39:01.961Z,17
2023-03-17T10:40:09.047Z,11
2023-03-17T10:41:27.230Z,12
2023-03-17T10:42:39.537Z,11
2023-03-17T10:43:49.628Z,9
2023-03-17T10:45:00.212Z,11
2023-03-17T10:46:09.960Z,13
2023-03-17T10:47:22.515Z,15
2023-03-17T10:48:32.331Z,17
2023-03-17T10:49:39.291Z,16
2023-03-17T10:50:49.256Z,13
2023-03-17T10:51:53.999Z,10
2023-03-17T10:53:04.166Z,10
2023-03-17T10:54:11.192Z,11
2023-03-17T10:55:20.941Z,10
2023-03-17T10:56:27.948Z,15
2023-03-17T10:57:37.764Z,12
2023-03-17T10:58:44.629Z,12
2023-03-17T10:59:51.506Z,10
2023-03-17T11:00:59.331Z,13
2023-03-17T11:02:06.133Z,10
2023-03-17T11:03:24.224Z,8
2023-03-17T11:04:33.888Z,10
2023-03-17T11:05:43.865Z,14
2023-03-17T11:07:01.210Z,11
2023-03-17T11:08:08.058Z,10
2023-03-17T11:09:19.642Z,11
2023-03-17T11:10:26.480Z,11
2023-03-17T11:11:33.612Z,13
2023-03-17T11:12:48.578Z,11
2023-03-17T11:14:00.343Z,12
2023-03-17T11:15:12.863Z,12
2023-03-17T11:16:19.789Z,11
2023-03-17T11:17:26.591Z,10
2023-03-17T11:18:38.644Z,10
2023-03-17T11:19:45.535Z,12
2023-03-17T11:21:00.037Z,12
2023-03-17T11:22:13.489Z,9
2023-03-17T11:23:25.358Z,12
2023-03-17T11:24:41.138Z,13
2023-03-17T11:25:50.876Z,12
2023-03-17T11:27:02.836Z,14
2023-03-17T11:28:14.908Z,14
2023-03-17T11:29:24.681Z,10
2023-03-17T11:30:41.988Z,9
2023-03-17T11:31:54.028Z,9
2023-03-17T11:33:05.253Z,10
2023-03-17T11:34:17.907Z,12
2023-03-17T11:35:33.380Z,12
2023-03-17T11:36:48.327Z,11
2023-03-17T11:38:02.955Z,9
2023-03-17T11:39:15.393Z,9
2023-03-17T11:40:29.562Z,10
2023-03-17T11:41:41.649Z,10
2023-03-17T11:42:51.540Z,9
2023-03-17T11:43:59.375Z,12
2023-03-17T11:45:11.416Z,14
2023-03-17T11:46:26.552Z,12
2023-03-17T11:47:43.823Z,9
2023-03-17T11:49:01.056Z,12
2023-03-17T11:50:07.951Z,10
2023-03-17T11:51:25.475Z,9
2023-03-17T11:52:40.094Z,9
2023-03-17T11:53:58.111Z,12
2023-03-17T11:55:12.750Z,11
2023-03-17T11:56:28.695Z,10
2023-03-17T11:57:43.315Z,12
2023-03-17T11:58:50.100Z,14
2023-03-17T12:00:02.329Z,11
2023-03-17T12:01:11.337Z,10
2023-03-17T12:02:18.272Z,10
2023-03-17T12:03:35.474Z,11
2023-03-17T12:04:47.845Z,12
2023-03-17T12:05:58.682Z,10
2023-03-17T12:07:05.562Z,12
2023-03-17T12:08:17.546Z,12
2023-03-17T12:09:34.695Z,9
2023-03-17T12:10:45.096Z,11
2023-03-17T12:11:57.181Z,10
2023-03-17T12:13:04.064Z,14
2023-03-17T12:14:12.338Z,11
2023-03-17T12:15:21.838Z,12
2023-03-17T12:16:28.794Z,11
2023-03-17T12:17:38.249Z,10
2023-03-17T12:18:50.180Z,9
2023-03-17T12:20:02.185Z,9
2023-03-17T12:21:14.143Z,9
2023-03-17T12:22:31.344Z,11
2023-03-17T12:23:43.310Z,10
2023-03-17T12:24:50.105Z,8
2023-03-17T12:26:02.105Z,8
2023-03-17T12:27:13.872Z,8
2023-03-17T12:28:25.898Z,9
2023-03-17T12:29:32.726Z,11
2023-03-17T12:30:44.666Z,10
2023-03-17T12:31:56.549Z,9
2023-03-17T12:33:10.887Z,8
2023-03-17T12:34:25.772Z,9
2023-03-17T12:35:43.031Z,9
2023-03-17T12:36:49.876Z,9
2023-03-17T12:37:57.532Z,8
2023-03-17T12:39:09.479Z,8
2023-03-17T12:40:16.348Z,11
2023-03-17T12:41:23.184Z,11
2023-03-17T12:42:34.036Z,10
2023-03-17T12:43:45.996Z,10
2023-03-17T12:45:03.107Z,11
2023-03-17T12:46:17.724Z,11
2023-03-17T12:47:35.849Z,13
2023-03-17T12:48:52.933Z,11
2023-03-17T12:50:10.088Z,10
2023-03-17T12:51:27.208Z,10
2023-03-17T12:52:44.415Z,12
2023-03-17T12:53:59.149Z,11
2023-03-17T12:55:06.928Z,12
2023-03-17T12:56:16.388Z,14
2023-03-17T12:57:28.940Z,10
2023-03-17T12:58:41.817Z,12
2023-03-17T12:59:51.731Z,12
2023-03-17T13:01:03.703Z,12
2023-03-17T13:02:16.067Z,12
2023-03-17T13:03:34.217Z,11
2023-03-17T13:04:41.099Z,10
2023-03-17T13:05:57.036Z,10
2023-03-17T13:07:04.078Z,17
2023-03-17T13:08:19.091Z,16
2023-03-17T13:09:31.805Z,11
2023-03-17T13:10:43.633Z,10
2023-03-17T13:11:51.975Z,9
2023-03-17T13:12:58.827Z,7
2023-03-17T13:14:08.524Z,8
2023-03-17T13:15:18.031Z,9
2023-03-17T13:16:27.767Z,11
2023-03-17T13:17:34.552Z,10
2023-03-17T13:18:41.525Z,10
2023-03-17T13:19:48.357Z,11
2023-03-17T13:21:03.170Z,9
2023-03-17T13:22:15.154Z,10
2023-03-17T13:23:24.783Z,9
2023-03-17T13:24:44.635Z,9
2023-03-17T13:25:55.078Z,11
2023-03-17T13:27:02.880Z,13
2023-03-17T13:28:10.487Z,8
2023-03-17T13:29:16.903Z,8
2023-03-17T13:30:34.093Z,9
2023-03-17T13:31:42.662Z,8
2023-03-17T13:32:51.391Z,10
2023-03-17T13:34:03.261Z,9
2023-03-17T13:35:12.098Z,8
2023-03-17T13:36:19.027Z,9
2023-03-17T13:37:34.243Z,8
2023-03-17T13:38:52.418Z,8
2023-03-17T13:39:59.284Z,8
2023-03-17T13:41:11.278Z,9
2023-03-17T13:42:23.292Z,11
2023-03-17T13:43:30.126Z,10
2023-03-17T13:44:44.877Z,9
2023-03-17T13:45:56.939Z,10
2023-03-17T13:47:14.024Z,11
2023-03-17T13:48:23.580Z,9
2023-03-17T13:49:33.296Z,10
2023-03-17T13:50:40.105Z,9
2023-03-17T13:51:58.962Z,9
2023-03-17T13:52:58.940Z,9
2023-03-17T13:54:06.055Z,12
2023-03-17T13:55:19.102Z,11
2023-03-17T13:56:25.923Z,12
2023-03-17T13:57:43.205Z,10
2023-03-17T13:58:55.251Z,11
2023-03-17T14:00:05.873Z,12
2023-03-17T14:01:16.487Z,10
2023-03-17T14:02:24.660Z,7
2023-03-17T14:03:34.459Z,9
2023-03-17T14:04:49.160Z,11
2023-03-17T14:06:03.813Z,9
2023-03-17T14:07:10.646Z,7
2023-03-17T14:08:17.551Z,7
2023-03-17T14:09:29.565Z,7
2023-03-17T14:10:44.350Z,10
2023-03-17T14:11:56.560Z,11
2023-03-17T14:13:03.349Z,8
2023-03-17T14:14:31.908Z,10
2023-03-17T14:15:37.889Z,8
2023-03-17T14:16:55.001Z,8
2023-03-17T14:18:12.225Z,7
2023-03-17T14:19:21.930Z,8
2023-03-17T14:20:28.728Z,7
2023-03-17T14:21:35.674Z,8
2023-03-17T14:22:46.880Z,11
2023-03-17T14:23:56.753Z,10
2023-03-17T14:25:03.714Z,11
2023-03-17T14:26:11.760Z,13
2023-03-17T14:27:18.592Z,10
2023-03-17T14:28:25.524Z,12
2023-03-17T14:29:32.869Z,9
2023-03-17T14:30:39.774Z,11
2023-03-17T14:31:57.061Z,8
2023-03-17T14:33:06.816Z,10
2023-03-17T14:34:21.204Z,15
2023-03-17T14:35:29.242Z,14
2023-03-17T14:36:38.914Z,8
2023-03-17T14:37:45.829Z,10
2023-03-17T14:38:53.598Z,10
2023-03-17T14:40:01.423Z,10
2023-03-17T14:41:10.390Z,10
2023-03-17T14:42:17.286Z,9
2023-03-17T14:43:29.362Z,9
2023-03-17T14:44:42.247Z,12
2023-03-17T14:45:49.072Z,13
2023-03-17T14:46:55.931Z,14
2023-03-17T14:48:03.808Z,10
2023-03-17T14:49:10.591Z,13
2023-03-17T14:50:20.221Z,8
2023-03-17T14:51:30.236Z,10
2023-03-17T14:52:37.118Z,9
2023-03-17T14:53:43.934Z,11
2023-03-17T14:54:50.892Z,11
2023-03-17T14:55:57.995Z,12
2023-03-17T14:57:04.883Z,12
2023-03-17T14:58:11.847Z,12
2023-03-17T14:59:21.342Z,11
2023-03-17T15:00:28.234Z,12
2023-03-17T15:01:40.413Z,12
2023-03-17T15:02:47.246Z,8
2023-03-17T15:03:57.522Z,8
2023-03-17T15:05:10.888Z,10
2023-03-17T15:06:28.086Z,11
2023-03-17T15:07:35.047Z,11
2023-03-17T15:08:44.933Z,10
2023-03-17T15:09:51.819Z,10
2023-03-17T15:11:04.879Z,8
2023-03-17T15:12:11.938Z,10
2023-03-17T15:13:21.691Z,9
2023-03-17T15:14:28.996Z,12
2023-03-17T15:15:37.008Z,12
2023-03-17T15:16:47.085Z,10
2023-03-17T15:17:54.109Z,12
2023-03-17T15:19:01.052Z,11
2023-03-17T15:20:13.173Z,12
2023-03-17T15:21:20.111Z,12
2023-03-17T15:22:26.941Z,13
2023-03-17T15:23:38.952Z,10
2023-03-17T15:24:46.655Z,10
2023-03-17T15:26:03.792Z,10
2023-03-17T15:27:13.454Z,10
2023-03-17T15:28:20.931Z,11
2023-03-17T15:29:28.160Z,11
2023-03-17T15:30:46.431Z,11
2023-03-17T15:31:48.237Z,12
2023-03-17T15:32:55.328Z,13
2023-03-17T15:34:02.206Z,13
2023-03-17T15:35:09.589Z,14
2023-03-17T15:36:31.633Z,11
2023-03-17T15:37:26.142Z,12
2023-03-17T15:38:33.139Z,12
2023-03-17T15:39:40.036Z,14
2023-03-17T15:40:46.920Z,10
2023-03-17T15:41:53.836Z,16
2023-03-17T15:43:01.528Z,14
2023-03-17T15:44:08.381Z,13
2023-03-17T15:45:15.272Z,12
2023-03-17T15:46:22.125Z,15
2023-03-17T15:47:28.975Z,12
2023-03-17T15:48:36.030Z,15
2023-03-17T15:49:42.993Z,11
2023-03-17T15:50:49.848Z,25
2023-03-17T15:51:56.692Z,22
2023-03-17T15:53:03.580Z,11
2023-03-17T15:54:10.454Z,11
2023-03-17T15:55:17.272Z,13
2023-03-17T15:56:27.348Z,12
2023-03-17T15:57:34.242Z,12
2023-03-17T15:58:41.109Z,10
2023-03-17T15:59:48.017Z,9
2023-03-17T16:00:55.125Z,11
2023-03-17T16:02:02.000Z,10
2023-03-17T16:03:14.008Z,10
2023-03-17T16:04:23.705Z,10
2023-03-17T16:05:30.492Z,9
2023-03-17T16:06:37.396Z,10
2023-03-17T16:07:44.239Z,10
2023-03-17T16:08:51.112Z,9
2023-03-17T16:09:58.033Z,12
2023-03-17T16:11:04.936Z,11
2023-03-17T16:12:22.027Z,11
2023-03-17T16:13:28.918Z,15
2023-03-17T16:14:35.896Z,18
2023-03-17T16:15:43.028Z,15
2023-03-17T16:16:55.047Z,20
2023-03-17T16:18:01.981Z,21
2023-03-17T16:19:08.901Z,21
2023-03-17T16:20:20.890Z,22
2023-03-17T16:21:38.049Z,22
2023-03-17T16:22:44.916Z,20
2023-03-17T16:23:51.799Z,12
2023-03-17T16:24:58.686Z,13
2023-03-17T16:26:14.597Z,12
2023-03-17T16:27:12.552Z,14
2023-03-17T16:28:19.540Z,15
2023-03-17T16:29:26.393Z,19
2023-03-17T16:30:34.057Z,16
2023-03-17T16:31:40.471Z,14
2023-03-17T16:32:47.378Z,13